createdAt,value
2022-11-04T00:03:08.782Z,18.23
2022-11-04T00:08:25.282Z,11.93
2022-11-04T00:13:29.912Z,14.10
2022-11-04T00:18:31.534Z,13.02
2022-11-04T00:23:51.410Z,9.32
2022-11-04T00:28:54.151Z,8.18
2022-11-04T00:33:57.767Z,8.15
2022-11-04T00:38:59.169Z,6.35
2022-11-04T00:44:04.948Z,9.95
2022-11-04T00:49:06.347Z,5.90
2022-11-04T00:54:07.701Z,8.57
2022-11-04T00:59:11.914Z,9.23
2022-11-04T01:04:15.849Z,6.82
2022-11-04T01:09:17.249Z,7.90
2022-11-04T01:14:18.804Z,9.73
2022-11-04T01:19:20.275Z,6.63
2022-11-04T01:24:21.654Z,6.78
2022-11-04T01:29:23.043Z,5.00
2022-11-04T01:34:24.394Z,5.40
2022-11-04T01:39:25.841Z,3.75
2022-11-04T01:44:42.301Z,3.97
2022-11-04T01:49:47.276Z,3.45
2022-11-04T01:54:52.234Z,4.63
2022-11-04T01:59:53.646Z,3.72
2022-11-04T02:04:55.052Z,3.20
2022-11-04T02:09:56.878Z,2.60
2022-11-04T02:14:58.729Z,4.65
2022-11-04T02:20:07.830Z,1.80
2022-11-04T02:25:48.126Z,1.60
2022-11-04T02:31:10.719Z,2.97
2022-11-04T02:36:40.122Z,2.03
2022-11-04T02:41:52.843Z,2.05
2022-11-04T02:47:00.810Z,2.60
2022-11-04T02:52:07.091Z,2.85
2022-11-04T02:57:13.805Z,2.85
2022-11-04T03:02:24.211Z,1.53
2022-11-04T03:07:34.302Z,1.33
2022-11-04T03:12:46.129Z,1.95
2022-11-04T03:18:03.050Z,2.47
2022-11-04T03:23:04.601Z,1.27
2022-11-04T03:28:19.084Z,1.55
2022-11-04T03:33:39.923Z,1.65
2022-11-04T03:38:41.405Z,0.52
2022-11-04T03:43:43.029Z,1.48
2022-11-04T03:48:46.912Z,1.80
2022-11-04T03:53:48.657Z,3.40
2022-11-04T03:59:14.489Z,2.13
2022-11-04T04:04:27.051Z,0.70
2022-11-04T04:09:41.965Z,3.03
2022-11-04T04:14:49.122Z,2.85
2022-11-04T04:19:59.461Z,2.25
2022-11-04T04:25:24.343Z,0.80
2022-11-04T04:30:26.263Z,3.47
2022-11-04T04:35:43.221Z,1.63
2022-11-04T04:41:12.417Z,3.00
2022-11-04T04:46:13.740Z,2.45
2022-11-04T04:51:15.550Z,1.85
2022-11-04T04:56:16.888Z,4.55
2022-11-04T05:01:18.321Z,0.60
2022-11-04T05:06:19.707Z,3.30
2022-11-04T05:11:26.079Z,1.50
2022-11-04T05:21:30.349Z,0.50
2022-11-04T05:26:31.705Z,2.50
2022-11-04T05:31:33.055Z,2.70
2022-11-04T05:36:34.462Z,1.80
2022-11-04T05:41:36.035Z,3.17
2022-11-04T05:46:37.552Z,0.90
2022-11-04T05:51:38.909Z,4.03
2022-11-04T05:56:40.266Z,1.75
2022-11-04T06:01:43.855Z,0.95
2022-11-04T06:06:45.412Z,3.03
2022-11-04T06:11:46.812Z,4.18
2022-11-04T06:16:48.231Z,8.05
2022-11-04T06:21:49.650Z,7.32
2022-11-04T06:26:51.111Z,6.10
2022-11-04T06:31:52.503Z,6.88
2022-11-04T06:36:53.888Z,4.53
2022-11-04T06:41:57.926Z,5.18
2022-11-04T06:47:01.732Z,5.68
2022-11-04T06:52:03.237Z,5.95
2022-11-04T06:57:04.817Z,4.47
2022-11-04T07:02:06.272Z,8.90
2022-11-04T07:07:07.974Z,7.22
2022-11-04T07:12:09.338Z,3.50
2022-11-04T07:17:10.668Z,9.00
2022-11-04T07:22:12.017Z,2.80
2022-11-04T07:27:13.398Z,6.60
2022-11-04T07:32:14.774Z,5.90
2022-11-04T07:37:16.110Z,5.75
2022-11-04T07:42:17.451Z,7.05
2022-11-04T07:47:18.785Z,8.05
2022-11-04T07:52:20.133Z,4.82
2022-11-04T07:57:22.359Z,5.90
2022-11-04T08:02:27.611Z,4.65
2022-11-04T08:12:32.797Z,7.43
2022-11-04T08:17:34.155Z,7.63
2022-11-04T08:22:35.757Z,12.60
2022-11-04T08:27:37.086Z,10.25
2022-11-04T08:32:38.434Z,6.65
2022-11-04T08:37:39.763Z,3.25
2022-11-04T08:42:41.081Z,6.95
2022-11-04T08:47:42.466Z,5.60
2022-11-04T08:52:43.804Z,2.92
2022-11-04T08:57:45.139Z,6.15
2022-11-04T09:02:46.979Z,7.07
2022-11-04T09:07:48.346Z,10.23
2022-11-04T09:12:49.882Z,6.88
2022-11-04T09:17:51.406Z,8.23
2022-11-04T09:22:54.237Z,10.02
2022-11-04T09:27:55.614Z,3.97
2022-11-04T09:32:58.132Z,8.77
2022-11-04T09:38:01.249Z,8.73
2022-11-04T09:43:29.997Z,4.65
2022-11-04T09:48:38.256Z,8.68
2022-11-04T09:53:47.785Z,3.50
2022-11-04T09:58:51.043Z,5.85
2022-11-04T10:04:15.703Z,4.07
2022-11-04T10:09:39.914Z,4.18
2022-11-04T10:15:04.554Z,6.80
2022-11-04T10:20:31.182Z,5.75
2022-11-04T10:25:42.455Z,3.72
2022-11-04T10:30:48.198Z,6.68
2022-11-04T10:36:02.803Z,6.25
2022-11-04T10:41:18.963Z,10.30
2022-11-04T10:46:39.177Z,6.30
2022-11-04T10:51:40.564Z,5.70
2022-11-04T10:56:47.503Z,7.25
2022-11-04T11:02:00.754Z,7.10
2022-11-04T11:07:05.535Z,5.20
2022-11-04T11:12:50.686Z,4.03
2022-11-04T11:17:59.737Z,6.35
2022-11-04T11:23:04.824Z,5.78
2022-11-04T11:28:10.739Z,4.10
2022-11-04T11:33:31.928Z,2.75
2022-11-04T11:38:34.737Z,3.85
2022-11-04T11:43:40.418Z,4.75
2022-11-04T11:48:44.473Z,3.90
2022-11-04T11:54:19.174Z,3.65
2022-11-04T12:10:49.809Z,2.92
2022-11-04T12:16:10.437Z,4.97
2022-11-04T12:21:20.873Z,3.20
2022-11-04T12:27:05.785Z,6.15
2022-11-04T12:32:10.465Z,4.45
2022-11-04T12:37:33.483Z,2.53
2022-11-04T12:42:57.289Z,5.57
2022-11-04T12:48:09.486Z,4.03
2022-11-04T12:53:43.927Z,5.20
2022-11-04T12:59:18.129Z,5.10
2022-11-04T13:04:33.815Z,3.60
2022-11-04T13:09:44.304Z,5.60
2022-11-04T13:15:02.686Z,2.85
2022-11-04T13:20:14.661Z,4.35
2022-11-04T13:25:24.390Z,3.35
2022-11-04T13:30:40.981Z,6.25
2022-11-04T13:35:57.697Z,6.20
2022-11-04T13:41:22.962Z,3.97
2022-11-04T13:46:30.346Z,3.92
2022-11-04T13:52:00.322Z,4.45
2022-11-04T13:57:07.726Z,3.83
2022-11-04T14:02:12.352Z,4.40
2022-11-04T14:07:17.713Z,6.20
2022-11-04T14:12:27.630Z,6.90
2022-11-04T14:17:34.719Z,10.65
2022-11-04T14:22:48.508Z,2.25
2022-11-04T14:27:53.415Z,4.25
2022-11-04T14:33:29.121Z,6.57
2022-11-04T14:38:33.806Z,4.15
2022-11-04T14:43:35.947Z,4.15
2022-11-04T14:48:46.972Z,3.08
2022-11-04T14:53:49.297Z,2.97
2022-11-04T14:59:03.306Z,3.45
2022-11-04T15:04:21.660Z,3.75
2022-11-04T15:09:39.524Z,5.13
2022-11-04T15:14:40.862Z,6.95
2022-11-04T15:19:42.957Z,6.00
2022-11-04T15:24:44.523Z,4.32
2022-11-04T15:30:00.595Z,5.60
2022-11-04T15:35:02.387Z,4.07
2022-11-04T15:40:06.105Z,6.53
2022-11-04T15:45:22.633Z,6.43
2022-11-04T15:50:25.536Z,6.05
2022-11-04T15:55:27.999Z,3.65
2022-11-04T16:00:30.380Z,7.65
2022-11-04T16:05:36.993Z,7.00
2022-11-04T16:10:39.787Z,7.07
2022-11-04T16:15:47.915Z,4.68
2022-11-04T16:20:52.947Z,6.45
2022-11-04T16:26:01.138Z,10.68
2022-11-04T16:31:06.266Z,6.88
2022-11-04T16:36:23.243Z,11.23
2022-11-04T16:41:28.012Z,5.05
2022-11-04T16:46:29.470Z,2.03
2022-11-04T16:51:33.367Z,3.72
2022-11-04T16:56:35.141Z,4.93
2022-11-04T17:01:39.700Z,12.93
2022-11-04T17:06:41.260Z,5.32
2022-11-04T17:11:42.663Z,3.67
2022-11-04T17:16:44.249Z,7.53
2022-11-04T17:21:46.603Z,12.43
2022-11-04T17:26:47.933Z,7.78
2022-11-04T17:31:49.746Z,9.15
2022-11-04T17:36:52.562Z,7.95
2022-11-04T17:42:12.900Z,8.52
2022-11-04T17:47:14.232Z,13.43
2022-11-04T17:52:15.614Z,15.13
2022-11-04T17:57:17.047Z,18.30
2022-11-04T18:02:18.587Z,15.50
2022-11-04T18:07:19.996Z,10.13
2022-11-04T18:12:36.638Z,10.88
2022-11-04T18:17:43.069Z,7.55
2022-11-04T18:22:44.802Z,10.40
2022-11-04T18:27:48.716Z,9.98
2022-11-04T18:32:50.134Z,12.13
2022-11-04T18:37:51.539Z,12.50
2022-11-04T18:42:52.971Z,12.00
2022-11-04T18:47:54.323Z,13.55
2022-11-04T18:52:55.832Z,14.68
2022-11-04T18:57:57.211Z,23.55
2022-11-04T19:02:59.198Z,19.35
2022-11-04T19:08:00.605Z,26.27
2022-11-04T19:13:20.557Z,25.85
2022-11-04T19:18:22.224Z,27.55
2022-11-04T19:23:23.575Z,25.33
2022-11-04T19:28:40.370Z,23.25
2022-11-04T19:33:47.395Z,15.48
2022-11-04T19:38:52.483Z,21.20
2022-11-04T19:43:53.836Z,21.48
2022-11-04T19:48:58.607Z,21.35
2022-11-04T19:54:00.267Z,24.15
2022-11-04T19:59:06.256Z,26.50
2022-11-04T20:04:08.077Z,22.85
2022-11-04T20:09:10.958Z,13.85
2022-11-04T20:14:12.416Z,24.58
2022-11-04T20:19:16.158Z,19.02
2022-11-04T20:29:22.593Z,23.27
2022-11-04T20:34:26.545Z,23.98
2022-11-04T20:39:30.164Z,14.63
2022-11-04T20:44:31.887Z,17.85
2022-11-04T20:49:33.365Z,17.17
2022-11-04T20:54:34.875Z,15.85
2022-11-04T20:59:36.304Z,18.83
2022-11-04T21:04:37.794Z,16.88
2022-11-04T21:09:39.181Z,15.30
2022-11-04T21:14:40.940Z,17.58
2022-11-04T21:19:42.418Z,6.82
2022-11-04T21:24:43.768Z,4.47
2022-11-04T21:29:45.226Z,3.22
2022-11-04T21:34:46.655Z,4.78
2022-11-04T21:39:47.990Z,2.58
2022-11-04T21:44:49.306Z,4.15
2022-11-04T21:49:50.644Z,5.60
2022-11-04T21:54:51.999Z,3.08
2022-11-04T21:59:53.355Z,2.50
2022-11-04T22:04:54.691Z,1.30
2022-11-04T22:09:56.050Z,2.17
2022-11-04T22:14:57.395Z,2.45
2022-11-04T22:19:58.760Z,0.63
2022-11-04T22:25:03.276Z,1.02
2022-11-04T22:30:05.693Z,0.88
2022-11-04T22:35:07.655Z,2.00
2022-11-04T22:40:09.761Z,3.08
2022-11-04T22:45:16.535Z,2.38
2022-11-04T22:50:18.731Z,3.05
2022-11-04T22:55:20.275Z,5.43
2022-11-04T23:00:21.904Z,2.17
2022-11-04T23:05:23.542Z,3.53
2022-11-04T23:10:43.676Z,0.90
2022-11-04T23:16:04.023Z,4.60
2022-11-04T23:21:24.442Z,2.45
2022-11-04T23:26:27.887Z,3.13
2022-11-04T23:31:29.553Z,1.45
2022-11-04T23:36:49.525Z,4.78
2022-11-04T23:42:09.383Z,5.35
2022-11-04T23:47:29.540Z,2.50
2022-11-04T23:52:49.556Z,3.00
2022-11-04T23:58:09.606Z,2.85
